createdAt,value
2018-02-03T00:02:20.571Z,16.08
2018-02-03T00:04:48.450Z,17.23
2018-02-03T00:07:17.052Z,16.35
2018-02-03T00:09:45.261Z,18.02
2018-02-03T00:12:13.228Z,22.33
2018-02-03T00:14:40.742Z,12.45
2018-02-03T00:17:08.347Z,21.75
2018-02-03T00:19:36.223Z,12.75
2018-02-03T00:22:03.727Z,20.83
2018-02-03T00:24:31.956Z,15.45
2018-02-03T00:27:00.202Z,18.85
2018-02-03T00:29:28.087Z,22.85
2018-02-03T00:31:56.670Z,14.75
2018-02-03T00:34:24.163Z,12.70
2018-02-03T00:36:51.640Z,21.92
2018-02-03T00:39:19.509Z,22.67
2018-02-03T00:41:47.532Z,22.27
2018-02-03T00:44:15.399Z,16.48
2018-02-03T00:46:43.979Z,19.40
2018-02-03T00:49:12.302Z,19.05
2018-02-03T00:51:39.802Z,17.50
2018-02-03T00:54:07.278Z,16.00
2018-02-03T00:56:35.550Z,25.75
2018-02-03T00:59:03.815Z,16.37
2018-02-03T01:01:31.711Z,15.23
2018-02-03T01:03:59.219Z,11.25
2018-02-03T01:06:26.700Z,11.80
2018-02-03T01:08:54.984Z,9.32
2018-02-03T01:11:23.302Z,10.07
2018-02-03T01:13:50.772Z,15.02
2018-02-03T01:16:18.615Z,11.30
2018-02-03T01:18:46.123Z,12.45
2018-02-03T01:21:13.607Z,9.45
2018-02-03T01:23:41.895Z,10.60
2018-02-03T01:26:09.755Z,11.63
2018-02-03T01:28:38.009Z,12.65
2018-02-03T01:31:05.900Z,14.20
2018-02-03T01:33:33.771Z,12.52
2018-02-03T01:36:01.253Z,20.33
2018-02-03T01:38:28.748Z,8.82
2018-02-03T01:40:56.222Z,11.02
2018-02-03T01:43:24.111Z,11.27
2018-02-03T01:45:51.952Z,12.35
2018-02-03T01:48:20.199Z,10.13
2018-02-03T01:50:48.082Z,11.70
2018-02-03T01:53:16.723Z,11.48
2018-02-03T01:55:44.608Z,14.57
2018-02-03T01:58:12.117Z,19.80
2018-02-03T02:00:40.443Z,15.60
2018-02-03T02:03:07.968Z,12.10
2018-02-03T02:05:35.916Z,13.95
2018-02-03T02:08:03.766Z,13.02
2018-02-03T02:10:32.027Z,12.55
2018-02-03T02:12:59.934Z,10.52
2018-02-03T02:15:27.789Z,15.05
2018-02-03T02:17:55.675Z,19.73
2018-02-03T02:20:23.159Z,10.77
2018-02-03T02:22:50.966Z,9.23
2018-02-03T02:25:18.930Z,7.87
2018-02-03T02:27:46.395Z,10.98
2018-02-03T02:30:14.675Z,7.68
2018-02-03T02:32:42.915Z,11.35
2018-02-03T02:35:11.247Z,11.45
2018-02-03T02:37:38.951Z,14.98
2018-02-03T02:40:06.447Z,14.43
2018-02-03T02:42:34.706Z,14.90
2018-02-03T02:45:02.628Z,10.52
2018-02-03T02:47:30.109Z,18.30
2018-02-03T02:49:57.575Z,12.75
2018-02-03T02:52:26.284Z,13.18
2018-02-03T02:54:53.755Z,6.10
2018-02-03T02:57:22.098Z,10.57
2018-02-03T02:59:49.933Z,5.95
2018-02-03T03:02:17.415Z,14.80
2018-02-03T03:04:44.904Z,15.43
2018-02-03T03:07:13.291Z,8.98
2018-02-03T03:09:41.616Z,10.98
2018-02-03T03:12:09.131Z,9.38
2018-02-03T03:14:36.679Z,15.63
2018-02-03T03:17:04.982Z,13.15
2018-02-03T03:19:32.497Z,17.08
2018-02-03T03:22:00.791Z,10.15
2018-02-03T03:24:28.669Z,13.45
2018-02-03T03:26:56.536Z,8.63
2018-02-03T03:29:24.023Z,15.38
2018-02-03T03:31:51.911Z,13.15
2018-02-03T03:34:19.412Z,14.73
2018-02-03T03:36:47.687Z,8.13
2018-02-03T03:39:15.919Z,9.15
2018-02-03T03:41:43.404Z,9.73
2018-02-03T03:44:10.883Z,9.85
2018-02-03T03:46:39.136Z,6.18
2018-02-03T03:49:07.383Z,10.45
2018-02-03T03:51:35.144Z,8.45
2018-02-03T03:54:03.034Z,14.98
2018-02-03T03:56:30.919Z,14.13
2018-02-03T03:58:58.853Z,9.77
2018-02-03T04:01:26.389Z,8.43
2018-02-03T04:03:54.247Z,12.07
2018-02-03T04:06:22.059Z,8.50
2018-02-03T04:08:49.541Z,15.90
2018-02-03T04:11:17.795Z,12.52
2018-02-03T04:13:46.375Z,6.15
2018-02-03T04:16:13.855Z,7.80
2018-02-03T04:18:42.119Z,12.60
2018-02-03T04:21:10.712Z,7.45
2018-02-03T04:23:38.291Z,7.82
2018-02-03T04:26:05.776Z,12.65
2018-02-03T04:28:34.091Z,8.48
2018-02-03T04:31:01.597Z,6.65
2018-02-03T04:33:29.064Z,9.38
2018-02-03T04:35:56.942Z,10.52
2018-02-03T04:38:24.810Z,11.00
2018-02-03T04:40:52.273Z,4.18
2018-02-03T04:43:20.070Z,4.70
2018-02-03T04:45:48.312Z,5.55
2018-02-03T04:48:15.780Z,4.78
2018-02-03T04:50:44.083Z,6.87
2018-02-03T04:53:12.331Z,6.53
2018-02-03T04:55:40.202Z,5.37
2018-02-03T04:58:08.150Z,11.32
2018-02-03T05:00:35.610Z,9.73
2018-02-03T05:03:03.074Z,5.32
2018-02-03T05:05:30.883Z,5.62
2018-02-03T05:07:58.346Z,4.57
2018-02-03T05:10:25.824Z,4.70
2018-02-03T05:12:53.632Z,5.12
2018-02-03T05:15:21.152Z,8.63
2018-02-03T05:17:48.648Z,7.93
2018-02-03T05:20:16.138Z,6.65
2018-02-03T05:22:43.616Z,4.00
2018-02-03T05:25:11.129Z,7.85
2018-02-03T05:27:39.696Z,5.97
2018-02-03T05:30:07.186Z,6.82
2018-02-03T05:32:34.699Z,10.23
2018-02-03T05:35:02.485Z,4.87
2018-02-03T05:37:30.743Z,4.28
2018-02-03T05:39:58.632Z,6.05
2018-02-03T05:42:27.427Z,4.97
2018-02-03T05:44:56.278Z,6.30
2018-02-03T05:47:23.733Z,4.00
2018-02-03T05:49:51.649Z,7.20
2018-02-03T05:52:19.208Z,9.95
2018-02-03T05:54:47.431Z,9.70
2018-02-03T05:57:15.643Z,5.85
2018-02-03T05:59:43.523Z,6.55
2018-02-03T06:02:11.106Z,6.18
2018-02-03T06:04:39.347Z,4.20
2018-02-03T06:07:07.571Z,7.30
2018-02-03T06:09:35.040Z,6.87
2018-02-03T06:12:02.825Z,6.37
2018-02-03T06:14:30.307Z,11.68
2018-02-03T06:16:58.573Z,6.87
2018-02-03T06:19:26.525Z,6.75
2018-02-03T06:21:54.351Z,7.70
2018-02-03T06:24:22.692Z,6.85
2018-02-03T06:26:50.559Z,11.50
2018-02-03T06:29:18.094Z,6.85
2018-02-03T06:31:45.984Z,9.00
2018-02-03T06:34:14.568Z,3.90
2018-02-03T06:36:42.885Z,7.62
2018-02-03T06:39:11.224Z,10.48
2018-02-03T06:41:39.755Z,6.75
2018-02-03T06:44:07.310Z,9.80
2018-02-03T06:46:34.782Z,10.80
2018-02-03T06:49:02.998Z,5.57
2018-02-03T06:51:30.876Z,9.68
2018-02-03T06:53:58.377Z,7.93
2018-02-03T06:56:25.870Z,10.40
2018-02-03T06:58:54.111Z,6.45
2018-02-03T07:01:21.659Z,11.52
2018-02-03T07:03:49.474Z,9.93
2018-02-03T07:06:17.701Z,9.93
2018-02-03T07:08:45.571Z,6.65
2018-02-03T07:11:13.060Z,6.03
2018-02-03T07:13:40.914Z,7.20
2018-02-03T07:16:08.394Z,7.35
2018-02-03T07:18:36.991Z,6.87
2018-02-03T07:21:04.855Z,9.63
2018-02-03T07:23:32.344Z,5.10
2018-02-03T07:25:59.870Z,6.60
2018-02-03T07:28:27.367Z,5.82
2018-02-03T07:30:54.854Z,8.93
2018-02-03T07:33:23.057Z,9.77
2018-02-03T07:35:50.551Z,8.88
2018-02-03T07:38:18.040Z,6.90
2018-02-03T07:40:46.638Z,12.77
2018-02-03T07:43:14.099Z,6.82
2018-02-03T07:45:42.322Z,9.07
2018-02-03T07:48:10.103Z,10.63
2018-02-03T07:50:37.564Z,9.48
2018-02-03T07:53:05.036Z,6.90
2018-02-03T07:55:32.531Z,5.95
2018-02-03T07:58:00.014Z,9.85
2018-02-03T08:00:28.034Z,11.55
2018-02-03T08:02:56.304Z,5.82
2018-02-03T08:05:24.563Z,4.60
2018-02-03T08:07:52.437Z,8.13
2018-02-03T08:10:20.731Z,7.37
2018-02-03T08:12:48.609Z,9.93
2018-02-03T08:15:16.863Z,7.68
2018-02-03T08:17:44.632Z,4.28
2018-02-03T08:20:12.885Z,5.28
2018-02-03T08:22:40.352Z,7.10
2018-02-03T08:25:08.945Z,6.07
2018-02-03T08:27:37.175Z,7.07
2018-02-03T08:30:04.652Z,10.73
2018-02-03T08:32:32.913Z,7.90
2018-02-03T08:35:00.411Z,9.93
2018-02-03T08:37:28.005Z,9.23
2018-02-03T08:39:55.804Z,12.85
2018-02-03T08:42:23.286Z,21.10
2018-02-03T08:44:50.781Z,10.70
2018-02-03T08:47:18.275Z,8.05
2018-02-03T08:49:45.764Z,12.55
2018-02-03T08:52:13.235Z,13.25
2018-02-03T08:54:41.590Z,12.57
2018-02-03T08:57:09.070Z,9.48
2018-02-03T08:59:37.326Z,8.00
2018-02-03T09:02:04.803Z,7.30
2018-02-03T09:04:32.682Z,10.77
2018-02-03T09:07:00.175Z,10.55
2018-02-03T09:09:27.990Z,14.75
2018-02-03T09:12:05.531Z,8.27
2018-02-03T09:14:33.468Z,8.38
2018-02-03T09:17:01.470Z,8.98
2018-02-03T09:19:28.956Z,9.95
2018-02-03T09:21:56.448Z,9.52
2018-02-03T09:24:23.927Z,11.68
2018-02-03T09:26:51.784Z,12.98
2018-02-03T09:29:19.267Z,9.43
2018-02-03T09:31:47.185Z,7.65
2018-02-03T09:34:14.631Z,12.73
2018-02-03T09:36:42.112Z,11.38
2018-02-03T09:39:09.612Z,9.35
2018-02-03T09:41:37.111Z,10.18
2018-02-03T09:44:05.398Z,9.82
2018-02-03T09:46:34.318Z,14.02
2018-02-03T09:49:02.561Z,9.40
2018-02-03T09:51:30.896Z,8.75
2018-02-03T09:53:58.411Z,6.85
2018-02-03T09:56:26.267Z,10.80
2018-02-03T09:58:53.784Z,8.90
2018-02-03T10:01:21.272Z,7.15
2018-02-03T10:03:49.527Z,5.10
2018-02-03T10:06:17.404Z,5.15
2018-02-03T10:08:45.039Z,5.40
2018-02-03T10:11:13.292Z,5.90
2018-02-03T10:13:40.844Z,9.35
2018-02-03T10:16:08.303Z,6.35
2018-02-03T10:18:35.790Z,5.43
2018-02-03T10:21:03.293Z,6.45
2018-02-03T10:23:30.791Z,4.65
2018-02-03T10:25:58.712Z,5.50
2018-02-03T10:28:26.951Z,5.53
2018-02-03T10:30:54.431Z,5.20
2018-02-03T10:33:22.678Z,4.82
2018-02-03T10:35:50.580Z,4.90
2018-02-03T10:38:18.467Z,5.82
2018-02-03T10:40:46.331Z,5.87
2018-02-03T10:43:14.509Z,5.70
2018-02-03T10:45:42.003Z,5.75
2018-02-03T10:48:09.491Z,6.45
2018-02-03T10:50:36.982Z,13.18
2018-02-03T10:53:04.460Z,6.35
2018-02-03T10:55:33.072Z,10.20
2018-02-03T10:58:00.553Z,6.65
2018-02-03T11:00:34.523Z,7.25
2018-02-03T11:03:02.443Z,10.07
2018-02-03T11:05:30.696Z,9.75
2018-02-03T11:07:58.616Z,10.38
2018-02-03T11:10:26.441Z,8.98
2018-02-03T11:12:54.668Z,9.93
2018-02-03T11:15:22.150Z,9.93
2018-02-03T11:17:50.384Z,8.23
2018-02-03T11:20:17.855Z,13.20
2018-02-03T11:22:45.321Z,8.50
2018-02-03T11:25:12.816Z,10.90
2018-02-03T11:27:41.132Z,13.10
2018-02-03T11:30:08.608Z,6.55
2018-02-03T11:32:36.482Z,7.25
2018-02-03T11:35:03.947Z,7.30
2018-02-03T11:37:31.807Z,6.22
2018-02-03T11:39:59.684Z,8.60
2018-02-03T11:42:27.161Z,7.72
2018-02-03T11:44:55.027Z,8.35
2018-02-03T11:47:22.795Z,6.93
2018-02-03T11:49:50.664Z,8.05
2018-02-03T11:52:18.527Z,6.60
2018-02-03T11:54:46.492Z,9.20
2018-02-03T11:57:14.764Z,14.07
2018-02-03T11:59:42.655Z,28.40
2018-02-03T12:02:10.144Z,13.55
2018-02-03T12:04:37.614Z,6.68
2018-02-03T12:07:05.490Z,10.30
2018-02-03T12:09:33.008Z,6.55
2018-02-03T12:12:00.491Z,5.85
2018-02-03T12:14:27.951Z,6.18
2018-02-03T12:16:56.201Z,6.22
2018-02-03T12:19:23.692Z,7.68
2018-02-03T12:21:51.596Z,6.87
2018-02-03T12:24:19.839Z,9.73
2018-02-03T12:26:47.365Z,9.48
2018-02-03T12:29:15.235Z,10.82
2018-02-03T12:31:43.868Z,10.93
2018-02-03T12:34:11.339Z,11.20
2018-02-03T12:36:39.587Z,10.07
2018-02-03T12:39:08.949Z,10.02
2018-02-03T12:41:36.408Z,8.65
2018-02-03T12:44:03.890Z,8.80
2018-02-03T12:46:31.775Z,8.95
2018-02-03T12:48:59.251Z,12.10
2018-02-03T12:51:27.129Z,8.65
2018-02-03T12:53:54.636Z,9.45
2018-02-03T12:56:22.154Z,8.02
2018-02-03T12:58:49.632Z,11.75
2018-02-03T13:01:17.216Z,11.65
2018-02-03T13:03:44.694Z,14.18
2018-02-03T13:06:13.467Z,10.65
2018-02-03T13:08:41.716Z,10.65
2018-02-03T13:11:09.196Z,11.60
2018-02-03T13:13:37.067Z,16.33
2018-02-03T13:16:04.596Z,12.05
2018-02-03T13:18:32.471Z,10.23
2018-02-03T13:20:59.971Z,13.70
2018-02-03T13:23:28.290Z,11.05
2018-02-03T13:25:56.559Z,11.68
2018-02-03T13:28:24.111Z,7.87
2018-02-03T13:30:52.355Z,8.35
2018-02-03T13:33:19.872Z,9.23
2018-02-03T13:35:47.347Z,14.18
2018-02-03T13:38:15.266Z,11.82
2018-02-03T13:40:43.131Z,9.77
2018-02-03T13:43:10.663Z,12.45
2018-02-03T13:45:38.551Z,9.85
2018-02-03T13:48:06.840Z,10.38
2018-02-03T13:50:34.775Z,11.73
2018-02-03T13:53:03.839Z,13.90
2018-02-03T13:55:31.303Z,11.90
2018-02-03T13:57:59.223Z,11.35
2018-02-03T14:00:26.807Z,14.30
2018-02-03T14:02:54.683Z,12.05
2018-02-03T14:05:22.244Z,15.88
2018-02-03T14:07:49.753Z,11.48
2018-02-03T14:10:17.632Z,13.30
2018-02-03T14:12:45.916Z,16.60
2018-02-03T14:15:13.408Z,15.50
2018-02-03T14:17:40.898Z,12.93
2018-02-03T14:20:08.780Z,12.05
2018-02-03T14:22:36.670Z,12.55
2018-02-03T14:25:05.972Z,14.25
2018-02-03T14:27:33.484Z,14.57
2018-02-03T14:30:01.781Z,10.27
2018-02-03T14:32:29.279Z,12.30
2018-02-03T14:34:56.768Z,11.65
2018-02-03T14:37:24.288Z,13.95
2018-02-03T14:39:51.801Z,14.85
2018-02-03T14:42:19.752Z,19.65
2018-02-03T14:44:47.264Z,11.38
2018-02-03T14:47:14.753Z,12.95
2018-02-03T14:49:42.231Z,12.77
2018-02-03T14:52:09.794Z,12.13
2018-02-03T14:54:38.041Z,12.43
2018-02-03T14:57:05.519Z,11.52
2018-02-03T14:59:33.043Z,12.55
2018-02-03T15:02:00.567Z,14.55
2018-02-03T15:04:28.044Z,14.68
2018-02-03T15:06:55.535Z,18.75
2018-02-03T15:09:23.004Z,13.62
2018-02-03T15:11:50.527Z,13.90
2018-02-03T15:14:18.483Z,12.52
2018-02-03T15:16:45.981Z,13.40
2018-02-03T15:19:13.464Z,14.52
2018-02-03T15:21:41.431Z,13.82
2018-02-03T15:24:09.803Z,11.10
2018-02-03T15:26:37.260Z,13.25
2018-02-03T15:29:05.595Z,13.30
2018-02-03T15:31:34.280Z,16.30
2018-02-03T15:34:01.849Z,12.85
2018-02-03T15:36:29.372Z,13.68
2018-02-03T15:38:57.255Z,14.05
2018-02-03T15:41:24.723Z,13.80
2018-02-03T15:43:52.235Z,14.15
2018-02-03T15:46:20.104Z,13.52
2018-02-03T15:48:48.359Z,12.20
2018-02-03T15:51:15.941Z,18.55
2018-02-03T15:53:44.188Z,17.60
2018-02-03T15:56:11.659Z,18.40
2018-02-03T15:58:39.951Z,19.27
2018-02-03T16:01:07.447Z,18.55
2018-02-03T16:03:34.999Z,16.08
2018-02-03T16:06:02.820Z,20.45
2018-02-03T16:08:31.051Z,18.00
2018-02-03T16:10:58.531Z,16.48
2018-02-03T16:13:26.008Z,16.92
2018-02-03T16:15:54.239Z,15.02
2018-02-03T16:18:21.747Z,17.80
2018-02-03T16:20:50.343Z,14.73
2018-02-03T16:23:17.835Z,16.98
2018-02-03T16:25:45.332Z,20.58
2018-02-03T16:28:13.614Z,17.73
2018-02-03T16:30:41.891Z,19.27
2018-02-03T16:33:09.490Z,29.98
2018-02-03T16:35:37.211Z,37.83
2018-02-03T16:38:04.680Z,19.83
2018-02-03T16:40:32.924Z,15.52
2018-02-03T16:43:00.464Z,15.32
2018-02-03T16:45:27.988Z,18.62
2018-02-03T16:47:55.871Z,25.00
2018-02-03T16:50:24.189Z,30.58
2018-02-03T16:52:52.067Z,32.28
2018-02-03T16:55:19.945Z,30.67
2018-02-03T16:57:48.112Z,21.73
2018-02-03T17:00:16.074Z,19.42
2018-02-03T17:02:43.543Z,23.05
2018-02-03T17:05:11.495Z,28.10
2018-02-03T17:07:39.018Z,21.75
2018-02-03T17:10:06.891Z,19.70
2018-02-03T17:12:35.119Z,22.92
2018-02-03T17:15:03.369Z,21.02
2018-02-03T17:17:31.291Z,21.37
2018-02-03T17:19:59.519Z,21.77
2018-02-03T17:22:27.382Z,25.40
2018-02-03T17:24:55.639Z,17.55
2018-02-03T17:27:23.573Z,21.62
2018-02-03T17:29:51.044Z,23.12
2018-02-03T17:32:18.545Z,21.05
2018-02-03T17:34:46.867Z,21.17
2018-02-03T17:50:38.899Z,17.48
2018-02-03T17:53:06.387Z,18.60
2018-02-03T17:55:39.914Z,17.00
2018-02-03T17:58:07.880Z,19.48
2018-02-03T18:00:36.115Z,19.73
2018-02-03T18:03:03.993Z,20.02
2018-02-03T18:05:31.859Z,17.73
2018-02-03T18:07:59.333Z,20.35
2018-02-03T18:10:27.611Z,18.00
2018-02-03T18:12:55.899Z,21.62
2018-02-03T18:15:23.780Z,19.15
2018-02-03T18:17:51.684Z,21.33
2018-02-03T18:20:19.182Z,18.80
2018-02-03T18:22:47.505Z,25.55
2018-02-03T18:25:15.392Z,19.45
2018-02-03T18:27:43.292Z,14.10
2018-02-03T18:30:11.160Z,10.43
2018-02-03T18:32:39.418Z,10.60
2018-02-03T18:35:06.908Z,9.00
2018-02-03T18:37:34.372Z,7.82
2018-02-03T18:40:01.959Z,9.30
2018-02-03T18:42:30.231Z,8.80
2018-02-03T18:44:58.097Z,8.35
2018-02-03T18:47:25.984Z,11.18
2018-02-03T18:49:53.480Z,10.25
2018-02-03T18:52:21.357Z,10.07
2018-02-03T18:54:49.209Z,11.35
2018-02-03T18:57:17.450Z,9.68
2018-02-03T18:59:44.951Z,12.68
2018-02-03T19:02:12.487Z,12.00
2018-02-03T19:04:40.738Z,12.60
2018-02-03T19:07:08.780Z,12.90
2018-02-03T19:09:36.330Z,13.62
2018-02-03T19:12:04.615Z,12.95
2018-02-03T19:14:32.101Z,14.65
2018-02-03T19:16:59.915Z,13.93
2018-02-03T19:19:27.868Z,16.17
2018-02-03T19:21:55.798Z,13.57
2018-02-03T19:24:24.007Z,15.35
2018-02-03T19:26:51.910Z,14.57
2018-02-03T19:29:19.882Z,19.15
2018-02-03T19:31:48.132Z,17.30
2018-02-03T19:34:16.390Z,19.25
2018-02-03T19:36:44.647Z,21.45
2018-02-03T19:39:12.605Z,19.23
2018-02-03T19:41:40.103Z,13.95
2018-02-03T19:44:08.338Z,18.27
2018-02-03T19:46:36.267Z,14.63
2018-02-03T19:49:03.735Z,15.88
2018-02-03T19:51:31.222Z,15.30
2018-02-03T19:54:00.694Z,13.18
2018-02-03T19:56:28.189Z,13.18
2018-02-03T19:58:55.662Z,14.63
2018-02-03T20:01:23.576Z,13.05
2018-02-03T20:03:51.063Z,14.23
2018-02-03T20:06:18.955Z,13.02
2018-02-03T20:08:46.858Z,12.27
2018-02-03T20:11:15.488Z,12.25
2018-02-03T20:13:42.974Z,13.77
2018-02-03T20:16:11.242Z,12.32
2018-02-03T20:18:39.143Z,13.20
2018-02-03T20:21:06.619Z,12.32
2018-02-03T20:23:34.115Z,11.38
2018-02-03T20:26:01.975Z,13.80
2018-02-03T20:28:31.003Z,14.80
2018-02-03T20:30:58.916Z,11.65
2018-02-03T20:33:26.828Z,12.65
2018-02-03T20:35:55.115Z,13.93
2018-02-03T20:38:23.006Z,12.93
2018-02-03T20:40:50.486Z,15.43
2018-02-03T20:43:18.009Z,20.25
2018-02-03T20:45:45.788Z,23.42
2018-02-03T20:48:13.253Z,21.87
2018-02-03T20:50:41.916Z,17.80
2018-02-03T20:53:09.423Z,24.95
2018-02-03T20:55:36.947Z,24.40
2018-02-03T20:58:04.824Z,20.70
2018-02-03T21:00:32.998Z,17.48
2018-02-03T21:03:00.477Z,16.50
2018-02-03T21:05:28.389Z,12.23
2018-02-03T21:07:56.263Z,13.68
2018-02-03T21:10:24.138Z,15.00
2018-02-03T21:12:51.609Z,15.30
2018-02-03T21:15:19.913Z,16.70
2018-02-03T21:17:48.195Z,16.48
2018-02-03T21:20:15.696Z,13.00
2018-02-03T21:22:43.264Z,13.60
2018-02-03T21:25:10.769Z,13.27
2018-02-03T21:27:38.251Z,15.77
2018-02-03T21:30:06.735Z,26.27
2018-02-03T21:32:34.207Z,28.73
2018-02-03T21:35:01.691Z,37.45
2018-02-03T21:37:29.192Z,24.60
2018-02-03T21:39:57.114Z,19.25
2018-02-03T21:42:25.086Z,18.33
2018-02-03T21:44:52.997Z,16.65
2018-02-03T21:47:20.891Z,15.70
2018-02-03T21:49:48.807Z,16.00
2018-02-03T21:52:16.823Z,11.90
2018-02-03T21:54:44.712Z,14.82
2018-02-03T21:57:12.588Z,14.50
2018-02-03T21:59:40.476Z,17.50
2018-02-03T22:02:08.391Z,13.80
2018-02-03T22:04:36.442Z,15.57
2018-02-03T22:07:04.320Z,13.68
2018-02-03T22:09:32.244Z,10.25
2018-02-03T22:11:59.725Z,12.55
2018-02-03T22:14:28.071Z,12.73
2018-02-03T22:16:55.542Z,14.40
2018-02-03T22:19:23.426Z,12.80
2018-02-03T22:21:51.671Z,15.18
2018-02-03T22:24:19.714Z,14.07
2018-02-03T22:26:47.672Z,13.57
2018-02-03T22:29:15.259Z,12.40
2018-02-03T22:31:43.597Z,13.02
2018-02-03T22:34:12.127Z,10.80
2018-02-03T22:36:40.431Z,14.15
2018-02-03T22:39:08.305Z,16.80
2018-02-03T22:41:36.177Z,12.37
2018-02-03T22:44:04.069Z,13.43
2018-02-03T22:46:32.469Z,12.07
2018-02-03T22:49:00.482Z,8.75
2018-02-03T22:51:28.359Z,9.90
2018-02-03T22:53:56.602Z,9.27
2018-02-03T22:56:24.721Z,9.43
2018-02-03T22:58:52.228Z,10.23
2018-02-03T23:01:19.748Z,9.88
2018-02-03T23:03:47.991Z,12.68
2018-02-03T23:06:16.560Z,10.75
2018-02-03T23:08:44.139Z,10.05
2018-02-03T23:11:12.651Z,10.00
2018-02-03T23:13:40.147Z,10.20
2018-02-03T23:16:07.647Z,11.68
2018-02-03T23:18:36.249Z,10.90
2018-02-03T23:21:03.735Z,9.00
2018-02-03T23:23:31.234Z,10.55
2018-02-03T23:25:59.605Z,8.60
2018-02-03T23:28:27.524Z,10.63
2018-02-03T23:30:55.092Z,10.88
2018-02-03T23:33:23.219Z,9.60
2018-02-03T23:35:51.449Z,9.20
2018-02-03T23:38:18.939Z,9.18
2018-02-03T23:40:46.525Z,7.70
2018-02-03T23:43:14.111Z,8.07
2018-02-03T23:45:41.588Z,7.47
2018-02-03T23:48:10.001Z,7.37
2018-02-03T23:50:37.982Z,7.25
2018-02-03T23:53:05.942Z,7.65
2018-02-03T23:55:34.419Z,11.40
2018-02-03T23:58:01.938Z,6.43
